sensor_id;sensor_type;location;lat;lon;timestamp;P1;durP1;ratioP1;P2;durP2;ratioP2
14282;SDS011;72649;59.274;18.450;2023-10-13T00:00:30;2.40;;;0.67;;
14282;SDS011;72649;59.274;18.450;2023-10-13T00:03:03;0.90;;;0.40;;
14282;SDS011;72649;59.274;18.450;2023-10-13T00:05:32;1.93;;;0.50;;
14282;SDS011;72649;59.274;18.450;2023-10-13T00:08:02;0.50;;;0.30;;
14282;SDS011;72649;59.274;18.450;2023-10-13T00:10:30;1.47;;;0.50;;
14282;SDS011;72649;59.274;18.450;2023-10-13T00:13:00;0.43;;;0.30;;
14282;SDS011;72649;59.274;18.450;2023-10-13T00:15:42;2.40;;;0.50;;
14282;SDS011;72649;59.274;18.450;2023-10-13T00:18:25;1.13;;;0.50;;
14282;SDS011;72649;59.274;18.450;2023-10-13T00:21:08;0.50;;;0.20;;
14282;SDS011;72649;59.274;18.450;2023-10-13T00:23:43;3.00;;;0.50;;
14282;SDS011;72649;59.274;18.450;2023-10-13T00:26:24;2.83;;;0.50;;
14282;SDS011;72649;59.274;18.450;2023-10-13T00:28:57;0.40;;;0.20;;
14282;SDS011;72649;59.274;18.450;2023-10-13T00:31:27;0.90;;;0.50;;
14282;SDS011;72649;59.274;18.450;2023-10-13T00:33:59;1.93;;;0.30;;
14282;SDS011;72649;59.274;18.450;2023-10-13T00:36:36;0.70;;;0.20;;
14282;SDS011;72649;59.274;18.450;2023-10-13T00:39:03;3.40;;;0.30;;
14282;SDS011;72649;59.274;18.450;2023-10-13T00:41:33;1.83;;;0.20;;
14282;SDS011;72649;59.274;18.450;2023-10-13T00:44:19;1.70;;;0.33;;
14282;SDS011;72649;59.274;18.450;2023-10-13T00:46:52;1.87;;;0.40;;
14282;SDS011;72649;59.274;18.450;2023-10-13T00:49:23;1.17;;;0.30;;
14282;SDS011;72649;59.274;18.450;2023-10-13T00:51:50;4.30;;;0.53;;
14282;SDS011;72649;59.274;18.450;2023-10-13T00:54:17;2.33;;;0.40;;
14282;SDS011;72649;59.274;18.450;2023-10-13T00:56:53;0.73;;;0.50;;
14282;SDS011;72649;59.274;18.450;2023-10-13T00:59:30;1.17;;;0.40;;
14282;SDS011;72649;59.274;18.450;2023-10-13T01:02:03;0.90;;;0.50;;
14282;SDS011;72649;59.274;18.450;2023-10-13T01:04:51;2.03;;;0.60;;
14282;SDS011;72649;59.274;18.450;2023-10-13T01:07:18;4.13;;;0.60;;
14282;SDS011;72649;59.274;18.450;2023-10-13T01:09:48;2.17;;;0.60;;
14282;SDS011;72649;59.274;18.450;2023-10-13T01:12:16;1.23;;;0.40;;
14282;SDS011;72649;59.274;18.450;2023-10-13T01:14:43;1.53;;;0.33;;
14282;SDS011;72649;59.274;18.450;2023-10-13T01:17:10;5.33;;;0.50;;
14282;SDS011;72649;59.274;18.450;2023-10-13T01:19:37;1.87;;;0.40;;
14282;SDS011;72649;59.274;18.450;2023-10-13T01:22:09;1.90;;;0.40;;
14282;SDS011;72649;59.274;18.450;2023-10-13T01:24:36;0.60;;;0.27;;
14282;SDS011;72649;59.274;18.450;2023-10-13T01:27:04;3.00;;;0.83;;
14282;SDS011;72649;59.274;18.450;2023-10-13T01:29:46;2.23;;;0.73;;
14282;SDS011;72649;59.274;18.450;2023-10-13T01:32:32;1.23;;;0.47;;
14282;SDS011;72649;59.274;18.450;2023-10-13T01:34:59;2.50;;;0.87;;
14282;SDS011;72649;59.274;18.450;2023-10-13T01:37:32;1.43;;;0.40;;
14282;SDS011;72649;59.274;18.450;2023-10-13T01:39:59;1.57;;;0.37;;
14282;SDS011;72649;59.274;18.450;2023-10-13T01:42:26;2.23;;;0.70;;
14282;SDS011;72649;59.274;18.450;2023-10-13T01:44:54;1.47;;;0.60;;
14282;SDS011;72649;59.274;18.450;2023-10-13T01:47:24;1.13;;;0.50;;
14282;SDS011;72649;59.274;18.450;2023-10-13T01:49:54;0.80;;;0.40;;
14282;SDS011;72649;59.274;18.450;2023-10-13T01:52:24;0.93;;;0.47;;
14282;SDS011;72649;59.274;18.450;2023-10-13T01:54:53;3.93;;;1.03;;
14282;SDS011;72649;59.274;18.450;2023-10-13T01:57:20;1.00;;;0.30;;
14282;SDS011;72649;59.274;18.450;2023-10-13T01:59:50;1.33;;;0.60;;
14282;SDS011;72649;59.274;18.450;2023-10-13T02:02:17;1.53;;;0.50;;
14282;SDS011;72649;59.274;18.450;2023-10-13T02:04:56;2.10;;;0.57;;
14282;SDS011;72649;59.274;18.450;2023-10-13T02:07:27;0.90;;;0.50;;
14282;SDS011;72649;59.274;18.450;2023-10-13T02:09:57;1.13;;;0.50;;
14282;SDS011;72649;59.274;18.450;2023-10-13T02:12:24;3.80;;;0.60;;
14282;SDS011;72649;59.274;18.450;2023-10-13T02:15:12;3.40;;;0.47;;
14282;SDS011;72649;59.274;18.450;2023-10-13T02:17:52;1.20;;;0.47;;
14282;SDS011;72649;59.274;18.450;2023-10-13T02:20:21;3.90;;;0.63;;
14282;SDS011;72649;59.274;18.450;2023-10-13T02:22:56;0.97;;;0.67;;
14282;SDS011;72649;59.274;18.450;2023-10-13T02:25:23;1.10;;;0.40;;
14282;SDS011;72649;59.274;18.450;2023-10-13T02:28:04;2.07;;;0.50;;
14282;SDS011;72649;59.274;18.450;2023-10-13T02:30:53;1.57;;;0.40;;
14282;SDS011;72649;59.274;18.450;2023-10-13T02:33:20;2.63;;;0.60;;
14282;SDS011;72649;59.274;18.450;2023-10-13T02:35:48;1.60;;;0.60;;
14282;SDS011;72649;59.274;18.450;2023-10-13T02:38:21;1.80;;;0.37;;
14282;SDS011;72649;59.274;18.450;2023-10-13T02:41:13;3.53;;;0.50;;
14282;SDS011;72649;59.274;18.450;2023-10-13T02:43:55;3.83;;;0.70;;
14282;SDS011;72649;59.274;18.450;2023-10-13T02:46:23;2.20;;;0.60;;
14282;SDS011;72649;59.274;18.450;2023-10-13T02:48:56;2.00;;;0.50;;
14282;SDS011;72649;59.274;18.450;2023-10-13T02:51:28;1.03;;;0.50;;
14282;SDS011;72649;59.274;18.450;2023-10-13T02:54:03;0.97;;;0.43;;
14282;SDS011;72649;59.274;18.450;2023-10-13T02:56:37;1.77;;;0.63;;
14282;SDS011;72649;59.274;18.450;2023-10-13T02:59:15;1.50;;;0.60;;
14282;SDS011;72649;59.274;18.450;2023-10-13T03:01:46;1.07;;;0.50;;
14282;SDS011;72649;59.274;18.450;2023-10-13T03:04:13;2.43;;;0.40;;
14282;SDS011;72649;59.274;18.450;2023-10-13T03:06:40;3.90;;;0.70;;
14282;SDS011;72649;59.274;18.450;2023-10-13T03:09:08;1.03;;;0.93;;
14282;SDS011;72649;59.274;18.450;2023-10-13T03:11:44;2.73;;;0.63;;
14282;SDS011;72649;59.274;18.450;2023-10-13T03:14:19;2.83;;;0.60;;
14282;SDS011;72649;59.274;18.450;2023-10-13T03:17:08;4.93;;;1.20;;
14282;SDS011;72649;59.274;18.450;2023-10-13T03:19:43;0.60;;;0.37;;
14282;SDS011;72649;59.274;18.450;2023-10-13T03:22:18;1.83;;;0.57;;
14282;SDS011;72649;59.274;18.450;2023-10-13T03:24:56;1.67;;;0.70;;
14282;SDS011;72649;59.274;18.450;2023-10-13T03:27:31;5.10;;;0.60;;
14282;SDS011;72649;59.274;18.450;2023-10-13T03:30:17;2.27;;;0.50;;
14282;SDS011;72649;59.274;18.450;2023-10-13T03:32:44;3.13;;;0.70;;
14282;SDS011;72649;59.274;18.450;2023-10-13T03:35:15;1.70;;;0.50;;
14282;SDS011;72649;59.274;18.450;2023-10-13T03:38:05;3.20;;;0.70;;
14282;SDS011;72649;59.274;18.450;2023-10-13T03:40:43;0.97;;;0.60;;
14282;SDS011;72649;59.274;18.450;2023-10-13T03:43:50;2.27;;;0.60;;
14282;SDS011;72649;59.274;18.450;2023-10-13T03:46:35;3.70;;;0.70;;
14282;SDS011;72649;59.274;18.450;2023-10-13T03:49:07;3.37;;;0.60;;
14282;SDS011;72649;59.274;18.450;2023-10-13T03:51:39;3.50;;;0.67;;
14282;SDS011;72649;59.274;18.450;2023-10-13T03:54:06;3.57;;;0.50;;
14282;SDS011;72649;59.274;18.450;2023-10-13T03:56:36;1.47;;;0.80;;
14282;SDS011;72649;59.274;18.450;2023-10-13T03:59:07;1.90;;;0.70;;
14282;SDS011;72649;59.274;18.450;2023-10-13T04:01:57;2.90;;;0.70;;
14282;SDS011;72649;59.274;18.450;2023-10-13T04:04:25;2.40;;;0.70;;
14282;SDS011;72649;59.274;18.450;2023-10-13T04:06:58;2.23;;;1.07;;
14282;SDS011;72649;59.274;18.450;2023-10-13T04:09:48;3.70;;;0.70;;
14282;SDS011;72649;59.274;18.450;2023-10-13T04:12:15;5.13;;;0.70;;
14282;SDS011;72649;59.274;18.450;2023-10-13T04:15:02;1.90;;;0.60;;
14282;SDS011;72649;59.274;18.450;2023-10-13T04:17:32;3.93;;;1.23;;
14282;SDS011;72649;59.274;18.450;2023-10-13T04:20:10;3.20;;;1.07;;
14282;SDS011;72649;59.274;18.450;2023-10-13T04:22:38;7.50;;;0.93;;
14282;SDS011;72649;59.274;18.450;2023-10-13T04:27:59;3.80;;;0.70;;
14282;SDS011;72649;59.274;18.450;2023-10-13T04:30:49;4.00;;;1.23;;
14282;SDS011;72649;59.274;18.450;2023-10-13T04:33:25;3.57;;;0.90;;
14282;SDS011;72649;59.274;18.450;2023-10-13T04:36:13;1.47;;;0.83;;
14282;SDS011;72649;59.274;18.450;2023-10-13T04:38:54;3.27;;;0.60;;
14282;SDS011;72649;59.274;18.450;2023-10-13T04:41:24;2.50;;;0.70;;
14282;SDS011;72649;59.274;18.450;2023-10-13T04:43:58;2.37;;;0.67;;
14282;SDS011;72649;59.274;18.450;2023-10-13T04:46:31;3.00;;;0.90;;
14282;SDS011;72649;59.274;18.450;2023-10-13T04:49:21;3.87;;;1.10;;
14282;SDS011;72649;59.274;18.450;2023-10-13T04:51:58;2.03;;;0.77;;
14282;SDS011;72649;59.274;18.450;2023-10-13T04:54:27;4.30;;;1.23;;
14282;SDS011;72649;59.274;18.450;2023-10-13T04:59:59;5.30;;;0.90;;
14282;SDS011;72649;59.274;18.450;2023-10-13T05:02:30;3.37;;;0.87;;
14282;SDS011;72649;59.274;18.450;2023-10-13T05:05:12;3.30;;;0.93;;
14282;SDS011;72649;59.274;18.450;2023-10-13T05:07:43;5.43;;;0.67;;
14282;SDS011;72649;59.274;18.450;2023-10-13T05:10:29;2.33;;;0.80;;
14282;SDS011;72649;59.274;18.450;2023-10-13T05:13:15;3.03;;;0.77;;
14282;SDS011;72649;59.274;18.450;2023-10-13T05:16:00;4.40;;;0.67;;
14282;SDS011;72649;59.274;18.450;2023-10-13T05:18:46;0.80;;;0.63;;
14282;SDS011;72649;59.274;18.450;2023-10-13T05:21:33;2.37;;;0.50;;
14282;SDS011;72649;59.274;18.450;2023-10-13T05:24:22;3.03;;;1.03;;
14282;SDS011;72649;59.274;18.450;2023-10-13T05:27:07;2.73;;;0.57;;
14282;SDS011;72649;59.274;18.450;2023-10-13T05:29:53;2.63;;;0.90;;
14282;SDS011;72649;59.274;18.450;2023-10-13T05:32:39;4.40;;;1.10;;
14282;SDS011;72649;59.274;18.450;2023-10-13T05:35:25;4.93;;;0.80;;
14282;SDS011;72649;59.274;18.450;2023-10-13T05:38:10;4.57;;;0.87;;
14282;SDS011;72649;59.274;18.450;2023-10-13T05:43:47;2.70;;;0.90;;
14282;SDS011;72649;59.274;18.450;2023-10-13T05:46:34;2.00;;;0.70;;
14282;SDS011;72649;59.274;18.450;2023-10-13T05:49:04;3.43;;;0.90;;
14282;SDS011;72649;59.274;18.450;2023-10-13T05:51:32;4.03;;;0.90;;
14282;SDS011;72649;59.274;18.450;2023-10-13T05:54:10;3.37;;;0.70;;
14282;SDS011;72649;59.274;18.450;2023-10-13T05:56:41;2.93;;;0.80;;
14282;SDS011;72649;59.274;18.450;2023-10-13T05:59:31;2.97;;;0.83;;
14282;SDS011;72649;59.274;18.450;2023-10-13T06:02:18;3.07;;;0.70;;
14282;SDS011;72649;59.274;18.450;2023-10-13T06:05:07;4.77;;;0.80;;
14282;SDS011;72649;59.274;18.450;2023-10-13T06:07:54;3.43;;;0.80;;
14282;SDS011;72649;59.274;18.450;2023-10-13T06:10:40;2.23;;;0.80;;
14282;SDS011;72649;59.274;18.450;2023-10-13T06:13:26;2.30;;;0.50;;
14282;SDS011;72649;59.274;18.450;2023-10-13T06:16:13;1.87;;;0.73;;
14282;SDS011;72649;59.274;18.450;2023-10-13T06:19:00;3.33;;;0.87;;
14282;SDS011;72649;59.274;18.450;2023-10-13T06:21:46;3.67;;;0.77;;
14282;SDS011;72649;59.274;18.450;2023-10-13T06:24:32;4.53;;;1.03;;
14282;SDS011;72649;59.274;18.450;2023-10-13T06:27:17;4.70;;;1.37;;
14282;SDS011;72649;59.274;18.450;2023-10-13T06:30:03;3.30;;;0.77;;
14282;SDS011;72649;59.274;18.450;2023-10-13T06:32:31;4.20;;;0.90;;
14282;SDS011;72649;59.274;18.450;2023-10-13T06:35:00;1.03;;;0.60;;
14282;SDS011;72649;59.274;18.450;2023-10-13T06:37:33;3.30;;;1.13;;
14282;SDS011;72649;59.274;18.450;2023-10-13T06:40:01;5.63;;;1.20;;
14282;SDS011;72649;59.274;18.450;2023-10-13T06:42:33;6.13;;;0.90;;
14282;SDS011;72649;59.274;18.450;2023-10-13T06:45:01;2.77;;;0.60;;
14282;SDS011;72649;59.274;18.450;2023-10-13T06:47:35;3.37;;;0.60;;
14282;SDS011;72649;59.274;18.450;2023-10-13T06:50:14;3.07;;;0.70;;
14282;SDS011;72649;59.274;18.450;2023-10-13T06:52:42;5.23;;;0.93;;
14282;SDS011;72649;59.274;18.450;2023-10-13T06:55:10;7.00;;;1.10;;
14282;SDS011;72649;59.274;18.450;2023-10-13T06:57:43;5.83;;;0.97;;
14282;SDS011;72649;59.274;18.450;2023-10-13T07:00:11;4.13;;;0.97;;
14282;SDS011;72649;59.274;18.450;2023-10-13T07:03:02;3.73;;;0.90;;
14282;SDS011;72649;59.274;18.450;2023-10-13T07:05:33;3.57;;;1.10;;
14282;SDS011;72649;59.274;18.450;2023-10-13T07:08:08;2.20;;;0.73;;
14282;SDS011;72649;59.274;18.450;2023-10-13T07:10:35;2.80;;;0.93;;
14282;SDS011;72649;59.274;18.450;2023-10-13T07:13:15;4.53;;;1.37;;
14282;SDS011;72649;59.274;18.450;2023-10-13T07:15:43;6.13;;;1.10;;
14282;SDS011;72649;59.274;18.450;2023-10-13T07:18:14;5.30;;;1.87;;
14282;SDS011;72649;59.274;18.450;2023-10-13T07:20:44;2.03;;;0.90;;
14282;SDS011;72649;59.274;18.450;2023-10-13T07:23:11;4.37;;;1.17;;
14282;SDS011;72649;59.274;18.450;2023-10-13T07:25:54;3.43;;;1.10;;
14282;SDS011;72649;59.274;18.450;2023-10-13T07:28:29;3.70;;;1.27;;
14282;SDS011;72649;59.274;18.450;2023-10-13T07:30:57;3.83;;;1.00;;
14282;SDS011;72649;59.274;18.450;2023-10-13T07:33:27;4.93;;;1.00;;
14282;SDS011;72649;59.274;18.450;2023-10-13T07:36:01;4.73;;;1.07;;
14282;SDS011;72649;59.274;18.450;2023-10-13T07:38:42;5.27;;;0.77;;
14282;SDS011;72649;59.274;18.450;2023-10-13T07:41:31;5.27;;;1.07;;
14282;SDS011;72649;59.274;18.450;2023-10-13T07:43:59;6.60;;;1.83;;
14282;SDS011;72649;59.274;18.450;2023-10-13T07:46:26;5.17;;;1.47;;
14282;SDS011;72649;59.274;18.450;2023-10-13T07:48:57;2.97;;;1.00;;
14282;SDS011;72649;59.274;18.450;2023-10-13T07:51:42;7.53;;;1.33;;
14282;SDS011;72649;59.274;18.450;2023-10-13T07:54:15;2.57;;;0.80;;
14282;SDS011;72649;59.274;18.450;2023-10-13T07:56:48;4.37;;;1.43;;
14282;SDS011;72649;59.274;18.450;2023-10-13T07:59:17;5.60;;;1.20;;
14282;SDS011;72649;59.274;18.450;2023-10-13T08:01:48;4.17;;;1.10;;
14282;SDS011;72649;59.274;18.450;2023-10-13T08:04:35;6.03;;;1.00;;
14282;SDS011;72649;59.274;18.450;2023-10-13T08:07:03;5.40;;;1.20;;
14282;SDS011;72649;59.274;18.450;2023-10-13T08:09:40;4.97;;;1.20;;
14282;SDS011;72649;59.274;18.450;2023-10-13T08:12:07;8.10;;;1.50;;
14282;SDS011;72649;59.274;18.450;2023-10-13T08:14:38;5.23;;;1.13;;
14282;SDS011;72649;59.274;18.450;2023-10-13T08:17:07;6.60;;;2.00;;
14282;SDS011;72649;59.274;18.450;2023-10-13T08:19:36;7.60;;;1.53;;
14282;SDS011;72649;59.274;18.450;2023-10-13T08:22:08;5.90;;;1.37;;
14282;SDS011;72649;59.274;18.450;2023-10-13T08:24:48;6.53;;;1.53;;
14282;SDS011;72649;59.274;18.450;2023-10-13T08:27:20;7.03;;;1.37;;
14282;SDS011;72649;59.274;18.450;2023-10-13T08:30:06;9.43;;;1.07;;
14282;SDS011;72649;59.274;18.450;2023-10-13T08:32:53;5.93;;;1.23;;
14282;SDS011;72649;59.274;18.450;2023-10-13T08:35:43;6.27;;;1.37;;
14282;SDS011;72649;59.274;18.450;2023-10-13T08:38:31;5.87;;;1.20;;
14282;SDS011;72649;59.274;18.450;2023-10-13T08:41:11;8.30;;;1.40;;
14282;SDS011;72649;59.274;18.450;2023-10-13T08:43:43;9.30;;;1.90;;
14282;SDS011;72649;59.274;18.450;2023-10-13T08:46:20;5.30;;;1.47;;
14282;SDS011;72649;59.274;18.450;2023-10-13T08:49:01;6.03;;;1.40;;
14282;SDS011;72649;59.274;18.450;2023-10-13T08:51:42;3.33;;;1.23;;
14282;SDS011;72649;59.274;18.450;2023-10-13T08:54:16;6.07;;;1.97;;
14282;SDS011;72649;59.274;18.450;2023-10-13T08:57:01;6.77;;;1.50;;
14282;SDS011;72649;59.274;18.450;2023-10-13T08:59:54;10.27;;;1.43;;
14282;SDS011;72649;59.274;18.450;2023-10-13T09:02:22;8.87;;;1.53;;
14282;SDS011;72649;59.274;18.450;2023-10-13T09:05:09;6.93;;;1.50;;
14282;SDS011;72649;59.274;18.450;2023-10-13T09:07:57;4.80;;;1.40;;
14282;SDS011;72649;59.274;18.450;2023-10-13T09:10:35;6.23;;;1.47;;
14282;SDS011;72649;59.274;18.450;2023-10-13T09:13:11;7.30;;;2.00;;
14282;SDS011;72649;59.274;18.450;2023-10-13T09:15:47;4.40;;;1.33;;
14282;SDS011;72649;59.274;18.450;2023-10-13T09:18:26;6.07;;;1.23;;
14282;SDS011;72649;59.274;18.450;2023-10-13T09:21:25;7.77;;;1.60;;
14282;SDS011;72649;59.274;18.450;2023-10-13T09:24:12;8.17;;;1.20;;
14282;SDS011;72649;59.274;18.450;2023-10-13T09:26:49;7.53;;;1.53;;
14282;SDS011;72649;59.274;18.450;2023-10-13T09:29:20;3.87;;;1.37;;
14282;SDS011;72649;59.274;18.450;2023-10-13T09:31:57;7.40;;;1.60;;
14282;SDS011;72649;59.274;18.450;2023-10-13T09:34:30;8.83;;;1.70;;
14282;SDS011;72649;59.274;18.450;2023-10-13T09:37:00;5.63;;;1.30;;
14282;SDS011;72649;59.274;18.450;2023-10-13T09:39:30;5.67;;;1.77;;
14282;SDS011;72649;59.274;18.450;2023-10-13T09:42:19;8.90;;;1.80;;
14282;SDS011;72649;59.274;18.450;2023-10-13T09:44:50;4.77;;;1.60;;
14282;SDS011;72649;59.274;18.450;2023-10-13T09:47:22;6.10;;;1.67;;
14282;SDS011;72649;59.274;18.450;2023-10-13T09:49:59;7.33;;;1.83;;
14282;SDS011;72649;59.274;18.450;2023-10-13T09:52:47;8.13;;;1.67;;
14282;SDS011;72649;59.274;18.450;2023-10-13T09:55:21;8.13;;;1.47;;
14282;SDS011;72649;59.274;18.450;2023-10-13T09:58:06;7.23;;;1.37;;
14282;SDS011;72649;59.274;18.450;2023-10-13T10:00:42;5.83;;;1.70;;
14282;SDS011;72649;59.274;18.450;2023-10-13T10:03:16;6.43;;;1.47;;
14282;SDS011;72649;59.274;18.450;2023-10-13T10:06:02;4.43;;;1.33;;
14282;SDS011;72649;59.274;18.450;2023-10-13T10:08:30;6.30;;;1.50;;
14282;SDS011;72649;59.274;18.450;2023-10-13T10:14:08;7.33;;;1.50;;
14282;SDS011;72649;59.274;18.450;2023-10-13T10:17:04;6.30;;;2.13;;
14282;SDS011;72649;59.274;18.450;2023-10-13T10:19:47;8.17;;;1.73;;
14282;SDS011;72649;59.274;18.450;2023-10-13T10:22:24;10.10;;;1.90;;
14282;SDS011;72649;59.274;18.450;2023-10-13T10:25:00;10.53;;;1.60;;
14282;SDS011;72649;59.274;18.450;2023-10-13T10:27:33;3.27;;;1.30;;
14282;SDS011;72649;59.274;18.450;2023-10-13T10:30:01;5.57;;;1.70;;
14282;SDS011;72649;59.274;18.450;2023-10-13T10:32:40;5.23;;;1.87;;
14282;SDS011;72649;59.274;18.450;2023-10-13T10:35:09;6.50;;;1.63;;
14282;SDS011;72649;59.274;18.450;2023-10-13T10:37:46;4.67;;;1.50;;
14282;SDS011;72649;59.274;18.450;2023-10-13T10:40:14;7.27;;;1.87;;
14282;SDS011;72649;59.274;18.450;2023-10-13T10:43:00;10.07;;;2.27;;
14282;SDS011;72649;59.274;18.450;2023-10-13T10:45:36;8.57;;;2.13;;
14282;SDS011;72649;59.274;18.450;2023-10-13T10:48:11;7.70;;;1.73;;
14282;SDS011;72649;59.274;18.450;2023-10-13T10:50:50;7.33;;;1.40;;
14282;SDS011;72649;59.274;18.450;2023-10-13T10:53:24;5.70;;;1.87;;
14282;SDS011;72649;59.274;18.450;2023-10-13T10:56:04;9.07;;;1.73;;
14282;SDS011;72649;59.274;18.450;2023-10-13T10:58:46;7.13;;;1.60;;
14282;SDS011;72649;59.274;18.450;2023-10-13T11:01:14;6.77;;;1.93;;
14282;SDS011;72649;59.274;18.450;2023-10-13T11:03:58;8.13;;;2.10;;
14282;SDS011;72649;59.274;18.450;2023-10-13T11:06:35;8.67;;;2.03;;
14282;SDS011;72649;59.274;18.450;2023-10-13T11:09:09;11.23;;;2.27;;
14282;SDS011;72649;59.274;18.450;2023-10-13T11:11:47;7.43;;;2.00;;
14282;SDS011;72649;59.274;18.450;2023-10-13T11:14:24;6.83;;;1.60;;
14282;SDS011;72649;59.274;18.450;2023-10-13T11:16:56;6.50;;;2.10;;
14282;SDS011;72649;59.274;18.450;2023-10-13T11:19:33;7.10;;;1.77;;
14282;SDS011;72649;59.274;18.450;2023-10-13T11:24:40;12.03;;;2.23;;
14282;SDS011;72649;59.274;18.450;2023-10-13T11:27:15;7.80;;;1.77;;
14282;SDS011;72649;59.274;18.450;2023-10-13T11:30:05;8.97;;;2.00;;
14282;SDS011;72649;59.274;18.450;2023-10-13T11:32:41;12.57;;;2.37;;
14282;SDS011;72649;59.274;18.450;2023-10-13T11:35:09;8.87;;;2.00;;
14282;SDS011;72649;59.274;18.450;2023-10-13T11:37:46;8.40;;;1.97;;
14282;SDS011;72649;59.274;18.450;2023-10-13T11:40:22;11.00;;;2.93;;
14282;SDS011;72649;59.274;18.450;2023-10-13T11:43:08;8.30;;;2.20;;
14282;SDS011;72649;59.274;18.450;2023-10-13T11:45:47;5.50;;;1.93;;
14282;SDS011;72649;59.274;18.450;2023-10-13T11:48:33;7.30;;;2.20;;
14282;SDS011;72649;59.274;18.450;2023-10-13T11:51:03;14.07;;;2.33;;
14282;SDS011;72649;59.274;18.450;2023-10-13T11:53:36;11.23;;;2.57;;
14282;SDS011;72649;59.274;18.450;2023-10-13T11:56:04;9.27;;;2.63;;
14282;SDS011;72649;59.274;18.450;2023-10-13T11:58:37;10.63;;;2.10;;
14282;SDS011;72649;59.274;18.450;2023-10-13T12:01:05;8.57;;;2.00;;
14282;SDS011;72649;59.274;18.450;2023-10-13T12:03:42;7.50;;;2.10;;
14282;SDS011;72649;59.274;18.450;2023-10-13T12:06:28;10.40;;;2.07;;
14282;SDS011;72649;59.274;18.450;2023-10-13T12:09:03;12.47;;;2.37;;
14282;SDS011;72649;59.274;18.450;2023-10-13T12:12:06;11.57;;;2.00;;
14282;SDS011;72649;59.274;18.450;2023-10-13T12:14:34;9.40;;;2.30;;
14282;SDS011;72649;59.274;18.450;2023-10-13T12:17:04;8.70;;;2.30;;
14282;SDS011;72649;59.274;18.450;2023-10-13T12:19:37;15.23;;;2.80;;
14282;SDS011;72649;59.274;18.450;2023-10-13T12:22:05;12.60;;;2.43;;
14282;SDS011;72649;59.274;18.450;2023-10-13T12:24:34;10.33;;;2.20;;
14282;SDS011;72649;59.274;18.450;2023-10-13T12:27:05;9.37;;;2.40;;
14282;SDS011;72649;59.274;18.450;2023-10-13T12:29:53;11.10;;;2.20;;
14282;SDS011;72649;59.274;18.450;2023-10-13T12:32:22;9.87;;;3.13;;
14282;SDS011;72649;59.274;18.450;2023-10-13T12:34:57;11.70;;;2.40;;
14282;SDS011;72649;59.274;18.450;2023-10-13T12:37:31;12.83;;;2.80;;
14282;SDS011;72649;59.274;18.450;2023-10-13T12:40:17;13.20;;;2.90;;
14282;SDS011;72649;59.274;18.450;2023-10-13T12:43:04;12.00;;;2.83;;
14282;SDS011;72649;59.274;18.450;2023-10-13T12:45:50;15.23;;;2.70;;
14282;SDS011;72649;59.274;18.450;2023-10-13T12:48:37;9.47;;;2.50;;
14282;SDS011;72649;59.274;18.450;2023-10-13T12:51:24;13.70;;;2.63;;
14282;SDS011;72649;59.274;18.450;2023-10-13T12:53:57;10.93;;;2.00;;
14282;SDS011;72649;59.274;18.450;2023-10-13T12:56:31;14.50;;;3.33;;
14282;SDS011;72649;59.274;18.450;2023-10-13T12:58:58;12.50;;;2.53;;
14282;SDS011;72649;59.274;18.450;2023-10-13T13:01:25;9.87;;;2.40;;
14282;SDS011;72649;59.274;18.450;2023-10-13T13:03:59;14.93;;;3.27;;
14282;SDS011;72649;59.274;18.450;2023-10-13T13:06:29;14.93;;;3.03;;
14282;SDS011;72649;59.274;18.450;2023-10-13T13:08:57;10.23;;;2.43;;
14282;SDS011;72649;59.274;18.450;2023-10-13T13:11:29;13.47;;;2.73;;
14282;SDS011;72649;59.274;18.450;2023-10-13T13:13:56;16.63;;;3.10;;
14282;SDS011;72649;59.274;18.450;2023-10-13T13:16:23;9.97;;;2.93;;
14282;SDS011;72649;59.274;18.450;2023-10-13T13:18:57;11.13;;;2.63;;
14282;SDS011;72649;59.274;18.450;2023-10-13T13:21:24;15.63;;;3.17;;
14282;SDS011;72649;59.274;18.450;2023-10-13T13:23:51;13.87;;;2.73;;
14282;SDS011;72649;59.274;18.450;2023-10-13T13:26:21;13.83;;;2.93;;
14282;SDS011;72649;59.274;18.450;2023-10-13T13:28:49;8.20;;;2.33;;
14282;SDS011;72649;59.274;18.450;2023-10-13T13:31:17;9.10;;;2.73;;
14282;SDS011;72649;59.274;18.450;2023-10-13T13:33:47;17.77;;;3.23;;
14282;SDS011;72649;59.274;18.450;2023-10-13T13:36:16;17.83;;;3.00;;
14282;SDS011;72649;59.274;18.450;2023-10-13T13:38:43;10.60;;;2.77;;
14282;SDS011;72649;59.274;18.450;2023-10-13T13:41:16;14.37;;;2.83;;
14282;SDS011;72649;59.274;18.450;2023-10-13T13:46:18;11.80;;;2.73;;
14282;SDS011;72649;59.274;18.450;2023-10-13T13:48:45;12.83;;;3.10;;
14282;SDS011;72649;59.274;18.450;2023-10-13T13:51:15;15.93;;;4.00;;
14282;SDS011;72649;59.274;18.450;2023-10-13T13:53:45;12.97;;;2.40;;
14282;SDS011;72649;59.274;18.450;2023-10-13T13:56:15;12.87;;;3.07;;
14282;SDS011;72649;59.274;18.450;2023-10-13T13:58:45;14.13;;;2.60;;
14282;SDS011;72649;59.274;18.450;2023-10-13T14:01:22;16.07;;;3.67;;
14282;SDS011;72649;59.274;18.450;2023-10-13T14:03:52;13.63;;;2.90;;
14282;SDS011;72649;59.274;18.450;2023-10-13T14:06:24;9.70;;;3.47;;
14282;SDS011;72649;59.274;18.450;2023-10-13T14:08:51;18.50;;;3.00;;
14282;SDS011;72649;59.274;18.450;2023-10-13T14:11:23;14.50;;;2.50;;
14282;SDS011;72649;59.274;18.450;2023-10-13T14:17:00;15.73;;;3.03;;
14282;SDS011;72649;59.274;18.450;2023-10-13T14:19:34;14.93;;;2.63;;
14282;SDS011;72649;59.274;18.450;2023-10-13T14:22:07;13.57;;;2.90;;
14282;SDS011;72649;59.274;18.450;2023-10-13T14:24:34;8.40;;;2.47;;
14282;SDS011;72649;59.274;18.450;2023-10-13T14:27:03;15.27;;;3.10;;
14282;SDS011;72649;59.274;18.450;2023-10-13T14:29:44;9.80;;;2.93;;
14282;SDS011;72649;59.274;18.450;2023-10-13T14:32:12;13.23;;;3.40;;
14282;SDS011;72649;59.274;18.450;2023-10-13T14:34:42;14.13;;;3.43;;
14282;SDS011;72649;59.274;18.450;2023-10-13T14:37:10;16.27;;;3.00;;
14282;SDS011;72649;59.274;18.450;2023-10-13T14:39:40;14.90;;;3.13;;
14282;SDS011;72649;59.274;18.450;2023-10-13T14:42:07;12.73;;;3.10;;
14282;SDS011;72649;59.274;18.450;2023-10-13T14:44:34;13.53;;;2.77;;
14282;SDS011;72649;59.274;18.450;2023-10-13T14:47:03;11.80;;;3.17;;
14282;SDS011;72649;59.274;18.450;2023-10-13T14:49:35;14.43;;;2.73;;
14282;SDS011;72649;59.274;18.450;2023-10-13T14:52:02;9.30;;;2.43;;
14282;SDS011;72649;59.274;18.450;2023-10-13T14:54:29;16.17;;;3.37;;
14282;SDS011;72649;59.274;18.450;2023-10-13T14:57:03;13.87;;;3.63;;
14282;SDS011;72649;59.274;18.450;2023-10-13T14:59:30;14.40;;;3.20;;
14282;SDS011;72649;59.274;18.450;2023-10-13T15:02:00;14.37;;;3.30;;
14282;SDS011;72649;59.274;18.450;2023-10-13T15:04:30;11.10;;;2.80;;
14282;SDS011;72649;59.274;18.450;2023-10-13T15:07:00;17.00;;;3.37;;
14282;SDS011;72649;59.274;18.450;2023-10-13T15:09:32;14.43;;;3.50;;
14282;SDS011;72649;59.274;18.450;2023-10-13T15:12:00;15.27;;;3.10;;
14282;SDS011;72649;59.274;18.450;2023-10-13T15:14:31;11.17;;;3.33;;
14282;SDS011;72649;59.274;18.450;2023-10-13T15:16:59;15.13;;;2.93;;
14282;SDS011;72649;59.274;18.450;2023-10-13T15:19:27;14.27;;;2.63;;
14282;SDS011;72649;59.274;18.450;2023-10-13T15:21:56;14.37;;;3.13;;
14282;SDS011;72649;59.274;18.450;2023-10-13T15:24:23;15.03;;;3.57;;
14282;SDS011;72649;59.274;18.450;2023-10-13T15:26:56;15.87;;;3.20;;
14282;SDS011;72649;59.274;18.450;2023-10-13T15:29:29;13.10;;;3.20;;
14282;SDS011;72649;59.274;18.450;2023-10-13T15:32:04;14.13;;;2.87;;
14282;SDS011;72649;59.274;18.450;2023-10-13T15:34:52;12.37;;;3.20;;
14282;SDS011;72649;59.274;18.450;2023-10-13T15:37:19;13.90;;;2.80;;